St. George, Utah Weather observations

Data are for observation ending at time listed.
 Day   Time    Ave.   Ave.  Ave.  Vector   Max.   Stn.    Total    Solar   Ave.  
  of    of     Air    Rel.  Wind   Wind    Wind   Baro.  Precip.   Rad.    Soil  
Year   Day     Temp.  Hum.  Speed  Dir.    Gust   Pres.                    Temp. 
2015   (MST)    F      %     mph   deg.    mph     mb.     in.     W/m2     F   
------------------------------------------------------------------------------
 244   11:40   91.9    22    2.0   225      8.4   919.3    0.00     828    82.4
 244   11:50   92.5    22    2.5   216      8.1   919.2    0.00     840    82.5
 244   12:00   93.3    21    1.1   259      5.0   919.0    0.00     848    82.6
 244   12:10   92.3    22    1.9    82      6.0   918.8    0.00     854    82.7
 244   12:20   92.8    22    1.2   194      5.2   918.7    0.00     860    82.9
 244   12:30   93.3    21    2.1   200     10.7   918.6    0.00     860    83.0
 244   12:40   93.0    21    3.7   208      9.9   918.5    0.00     865    83.1
 244   12:50   93.2    20    3.4   225     10.2   918.4    0.00     870    83.3
 244   13:00   93.0    20    1.9   124      6.9   918.3    0.00     871    83.5
 244   13:10   93.5    20    1.9   142     11.5   918.2    0.00     864    83.6
 244   13:20   94.7    19    1.2   299      4.1   918.1    0.00     859    83.8
 244   13:30   95.3    18    2.8   221      8.9   918.1    0.00     861    83.9
 244   13:40   95.4    17    5.1   218     10.0   917.9    0.00     855    84.1
 244   13:50   95.8    17    6.9   221     15.3   917.8    0.00     848    84.2
 244   14:00   95.1    17    3.8   183     10.4   917.6    0.00     835    84.4
 244   14:10   95.8    17    5.3   221     12.3   917.6    0.00     823    84.5
 244   14:20   95.6    16    2.4   228      8.0   917.4    0.00     803    84.6
 244   14:30   95.8    16    2.6   243      9.1   917.4    0.00     784    84.8
 244   14:40   95.5    16    2.7   319     10.0   917.1    0.00     769    84.9
 244   14:50   96.8    16    2.1   305     11.7   916.9    0.00     753    85.1
 244   15:00   97.1    16    3.8   227      9.1   916.8    0.00     732    85.2
 244   15:10   97.0    16    1.9   287      6.1   916.7    0.00     699    85.4
 244   15:20   97.1    16    1.7   250      6.4   916.5    0.00     732    85.5
 244   15:30   96.9    16    2.0   274      9.3   916.4    0.00     722    85.6
 244   15:40   96.5    15    2.8   298      6.4   916.3    0.00     544    85.8
 244   15:50   97.2    15    4.6   238     13.7   916.2    0.00     699    85.9
 244   16:00   96.2    16    5.8   232     12.7   916.2    0.00     634    86.0
 244   16:10   96.5    16    5.0   233     13.6   916.1    0.00     590    86.1
 244   16:20   97.1    16    6.7   227     16.2   916.0    0.00     543    86.2
 244   16:30   97.1    16    3.1   256      9.7   916.0    0.00     470    86.3
 244   16:40   96.9    16    4.3   235      9.1   915.9    0.00     444    86.5
 244   16:50   96.2    16    3.3   238      9.3   915.8    0.00     342    86.5
 244   17:00   96.6    16    4.5   235     10.2   915.9    0.00     431    86.6
 244   17:10   96.7    16    3.6   242      8.8   915.8    0.00     373    86.7
 244   17:20   96.1    16    4.6   237     11.2   915.9    0.00     213    86.7
 244   17:30   94.7    16    4.7   241     11.0   915.8    0.00     159    86.8
 244   17:40   94.6    16    5.5   231     14.0   915.9    0.00     158    86.9
 244   17:50   94.5    16    3.5   250      8.8   915.9    0.00     146    86.9
 244   18:00   94.4    16    5.5   238     10.5   916.0    0.00     162    87.0
 244   18:10   94.3    16    4.9   228      9.5   916.0    0.00     142    87.0
 244   18:20   93.8    17    4.4   240      9.8   916.1    0.00      69    87.0
 244   18:30   93.3    17    4.0   248      9.1   916.0    0.00      51    87.0
 244   18:40   93.3    16    4.4   248     11.7   916.1    0.00      37    87.0
 244   18:50   93.0    16    5.0   244     11.5   916.0    0.00      24    87.0
 244   19:00   92.6    17    5.0   242     12.7   916.1    0.00      12    87.0
 244   19:10   92.2    17    3.7   247     10.2   916.2    0.00       5    87.0
 244   19:20   91.8    18    5.1   244     12.0   916.3    0.00       3    86.9
 244   19:30   91.5    18    3.9   250     10.6   916.5    0.00       2    86.9
 244   19:40   91.2    18    4.8   243      9.7   916.6    0.00       0    86.9
 244   19:50   91.0    18    4.6   250     11.3   916.8    0.00       0    86.9
 244   20:00   90.8    18    4.0   253      9.1   917.0    0.00       0    86.8
 244   20:10   90.8    18    4.3   251     11.7   917.2    0.00       0    86.8
 244   20:20   90.6    18    3.8   251     10.2   917.3    0.00       0    86.7
 244   20:30   90.0    18    1.9   261      5.8   917.5    0.00       0    86.7
 244   20:40   89.5    18    2.3   260      6.1   917.6    0.00       0    86.6
 244   20:50   89.2    18    1.4   260      4.2   917.7    0.00       0    86.6
 244   21:00   88.8    20    1.9   262      5.4   917.8    0.00       0    86.5
 244   21:10   88.5    20    1.2   240      4.5   917.9    0.00       0    86.4
 244   21:20   87.9    22    1.0   236      5.0   918.1    0.00       0    86.4
 244   21:30   86.8    24    0.9   102      2.0   918.2    0.00       0    86.3
 244   21:40   85.2    26    0.9    27      1.7   918.2    0.00       0    86.3
 244   21:50   84.7    27    0.3    45      1.2   918.3    0.00       0    86.2
 244   22:00   84.7    26    0.4    66      1.7   918.3    0.00       0    86.1
 244   22:10   84.5    26    0.5    32      1.8   918.3    0.00       0    86.1
 244   22:20   83.7    28    1.1   342      2.6   918.4    0.00       0    86.0
 244   22:30   82.8    29    0.7    28      1.5   918.4    0.00       0    85.9
 244   22:40   83.0    27    0.6    29      1.7   918.5    0.00       0    85.9
 244   22:50   83.1    27    1.2    52      2.6   918.6    0.00       0    85.8
 244   23:00   83.4    26    1.1    51      2.3   918.6    0.00       0    85.7
 244   23:10   83.5    26    0.9    44      2.0   918.7    0.00       0    85.7
 244   23:20   83.0    27    0.9    52      2.1   918.7    0.00       0    85.6
 244   23:30   82.2    29    0.8    64      2.2   918.8    0.00       0    85.5
 244   23:40   81.4    30    0.4    30      1.3   918.9    0.00       0    85.5
 244   23:50   81.6    30    0.4    66      2.0   918.9    0.00       0    85.4
 245    0:00   81.3    31    0.4     6      1.5   919.0    0.00       0    85.3
 245    0:10   80.5    32    0.4    20      2.0   919.1    0.00       0    85.3
 245    0:20   80.6    32    1.1     6      2.0   919.2    0.00       0    85.3
 245    0:30   81.0    31    1.4    16      2.6   919.1    0.00       0    85.2
 245    0:40   81.4    31    2.5    63      4.2   919.2    0.00       0    85.1
 245    0:50   81.2    30    1.9    57      3.8   919.1    0.00       0    85.0
 245    1:00   80.4    32    1.3    34      2.1   919.1    0.00       0    85.0
 245    1:10   79.8    32    1.6    59      2.9   919.1    0.00       0    84.9
 245    1:20   79.4    33    1.5    49      3.1   919.0    0.00       0    84.9
 245    1:30   79.7    32    1.9    59      3.8   919.2    0.00       0    84.8
 245    1:40   80.0    31    1.9    64      4.5   919.1    0.00       0    84.7
 245    1:50   79.8    32    1.4    67      3.3   919.0    0.00       0    84.7
 245    2:00   79.6    32    1.1    46      3.6   919.1    0.00       0    84.6
 245    2:10   79.2    33    2.3    59      5.3   919.2    0.00       0    84.5
 245    2:20   79.6    32    2.9    74      6.4   919.2    0.00       0    84.5
 245    2:30   79.6    32    1.9    80      4.3   919.3    0.00       0    84.4
 245    2:40   80.2    31    2.4    93      5.8   919.4    0.00       0    84.3
 245    2:50   79.8    32    1.9    96      4.7   919.4    0.00       0    84.2
 245    3:00   79.5    32    1.7    95      3.7   919.4    0.00       0    84.1
 245    3:10   79.7    32    1.8    78      4.4   919.4    0.00       0    84.1
 245    3:20   79.3    32    1.9    73      7.1   919.5    0.00       0    84.0
 245    3:30   78.8    33    1.7    88      4.8   919.4    0.00       0    83.9
 245    3:40   78.3    34    2.0    64      3.7   919.3    0.00       0    83.9
 245    3:50   78.2    34    1.2    57      2.6   919.3    0.00       0    83.8
 245    4:00   77.3    36    1.3    60      3.1   919.4    0.00       0    83.8
 245    4:10   77.3    36    0.6   137      2.0   919.5    0.00       0    83.7
 245    4:20   76.3    40    0.5    59      1.5   919.6    0.00       0    83.6
 245    4:30   76.1    39    1.7    64      3.4   919.6    0.00       0    83.5
 245    4:40   76.5    38    1.1    52      3.4   919.7    0.00       0    83.5
 245    4:50   76.3    39    1.8    59      4.4   919.6    0.00       0    83.4
 245    5:00   76.2    39    1.1    67      3.1   919.6    0.00       0    83.3
 245    5:10   75.7    40    1.0    94      2.2   919.6    0.00       0    83.3
 245    5:20   75.8    39    1.5    64      3.4   919.7    0.00       0    83.2
 245    5:30   75.7    40    0.5   160      2.0   919.8    0.00       0    83.1
 245    5:40   75.3    41    0.7   164      1.7   919.9    0.00       0    83.1
 245    5:50   74.6    44    0.3   231      1.4   920.0    0.00       1    83.0
 245    6:00   74.2    42    0.2   110      2.0   920.1    0.00       3    83.0
 245    6:10   74.4    42    0.2   171      2.1   920.3    0.00       3    82.9
 245    6:20   75.3    39    1.4   124      3.5   920.4    0.00       8    82.8
 245    6:30   75.7    38    1.0   136      3.4   920.5    0.00      19    82.8
 245    6:40   75.6    39    1.3   123      3.4   920.7    0.00      27    82.7
 245    6:50   75.7    39    1.7    68      4.0   920.8    0.00      30    82.6
 245    7:00   76.0    39    1.4    99      3.4   920.8    0.00      32    82.6
 245    7:10   76.6    37    2.3    82      5.5   920.9    0.00      34    82.5
 245    7:20   77.0    37    2.8    72      5.8   921.0    0.00      36    82.5
 245    7:30   77.3    37    2.9    63      6.6   921.0    0.00      39    82.4
 245    7:40   77.8    36    2.5    70      5.6   921.0    0.00      69    82.3
 245    7:50   78.2    35    2.2    62      4.7   921.1    0.00     146    82.3
 245    8:00   78.7    34    1.9    81      5.3   921.0    0.00     247    82.2
 245    8:10   79.5    34    1.7    71      4.4   921.0    0.00     320    82.2
 245    8:20   81.0    32    1.8    94      3.5   921.0    0.00     354    82.1
 245    8:30   82.7    31    1.4    90      5.1   921.0    0.00     388    82.1
 245    8:40   82.8    30    2.2    70      5.0   921.0    0.00     421    82.1
 245    8:50   83.9    30    1.3   108      3.9   920.9    0.00     455    82.1
 245    9:00   84.6    29    2.0    66      3.7   920.8    0.00     487    82.0
 245    9:10   85.1    29    1.5    93      3.3   920.7    0.00     517    82.0
 245    9:20   85.6    29    1.8    80      5.5   920.7    0.00     549    82.0
 245    9:30   86.3    28    2.0   152      5.4   920.6    0.00     545    82.0
 245    9:40   86.2    28    1.4   110      3.9   920.5    0.00     517    82.0
 245    9:50   86.3    28    2.0     6      4.1   920.5    0.00     525    82.0
 245   10:00   86.5    28    1.7    22      5.0   920.4    0.00     536    82.0
 245   10:10   86.7    28    2.1    12      4.1   920.3    0.00     509    82.1
 245   10:20   87.5    28    2.7     8      9.6   920.3    0.00     599    82.1
 245   10:30   88.0    27    2.7   163      9.1   920.3    0.00     635    82.1
 245   10:40   88.4    27    2.6   254      5.8   920.2    0.00     626    82.2
 245   10:50   89.2    26    2.3   176      5.2   920.1    0.00     751    82.3
 245   11:00   90.6    26    1.5   117      5.5   920.0    0.00     794    82.3
 245   11:10   90.5    24    2.2   117      6.1   919.9    0.00     807    82.4
 245   11:20   90.5    23    3.4   190      7.2   919.8    0.00     725    82.5
 245   11:30   90.4    23    2.8   183      5.9   919.7    0.00     775    82.6

Return to St. George, Utah graphs page.


Western Regional Climate Center,wrcc@dri.edu